sensor_id;sensor_type;location;lat;lon;timestamp;P1;durP1;ratioP1;P2;durP2;ratioP2
11596;SDS011;5854;48.072;16.286;2022-08-05T00:00:08;2.05;;;0.93;;
11596;SDS011;5854;48.072;16.286;2022-08-05T00:02:36;1.05;;;1.00;;
11596;SDS011;5854;48.072;16.286;2022-08-05T00:05:04;3.40;;;1.15;;
11596;SDS011;5854;48.072;16.286;2022-08-05T00:07:32;0.95;;;0.85;;
11596;SDS011;5854;48.072;16.286;2022-08-05T00:09:59;1.20;;;1.10;;
11596;SDS011;5854;48.072;16.286;2022-08-05T00:12:27;0.90;;;0.75;;
11596;SDS011;5854;48.072;16.286;2022-08-05T00:14:54;1.33;;;0.90;;
11596;SDS011;5854;48.072;16.286;2022-08-05T00:17:21;2.65;;;0.98;;
11596;SDS011;5854;48.072;16.286;2022-08-05T00:19:48;4.63;;;1.27;;
11596;SDS011;5854;48.072;16.286;2022-08-05T00:22:15;2.60;;;1.10;;
11596;SDS011;5854;48.072;16.286;2022-08-05T00:24:42;1.25;;;1.15;;
11596;SDS011;5854;48.072;16.286;2022-08-05T00:27:09;1.42;;;1.23;;
11596;SDS011;5854;48.072;16.286;2022-08-05T00:29:38;2.45;;;1.20;;
11596;SDS011;5854;48.072;16.286;2022-08-05T00:32:05;2.50;;;1.15;;
11596;SDS011;5854;48.072;16.286;2022-08-05T00:34:36;3.10;;;1.10;;
11596;SDS011;5854;48.072;16.286;2022-08-05T00:37:04;1.38;;;1.20;;
11596;SDS011;5854;48.072;16.286;2022-08-05T00:39:32;1.45;;;1.00;;
11596;SDS011;5854;48.072;16.286;2022-08-05T00:41:59;1.33;;;1.23;;
11596;SDS011;5854;48.072;16.286;2022-08-05T00:44:26;1.45;;;1.20;;
11596;SDS011;5854;48.072;16.286;2022-08-05T00:46:54;1.42;;;1.33;;
11596;SDS011;5854;48.072;16.286;2022-08-05T00:49:21;3.35;;;1.20;;
11596;SDS011;5854;48.072;16.286;2022-08-05T00:51:48;2.28;;;1.48;;
11596;SDS011;5854;48.072;16.286;2022-08-05T00:54:15;1.08;;;1.02;;
11596;SDS011;5854;48.072;16.286;2022-08-05T00:56:42;3.25;;;1.52;;
11596;SDS011;5854;48.072;16.286;2022-08-05T00:59:09;5.32;;;1.85;;
11596;SDS011;5854;48.072;16.286;2022-08-05T01:01:36;3.90;;;1.17;;
11596;SDS011;5854;48.072;16.286;2022-08-05T01:04:06;2.42;;;1.05;;
11596;SDS011;5854;48.072;16.286;2022-08-05T01:06:33;1.50;;;1.17;;
11596;SDS011;5854;48.072;16.286;2022-08-05T01:09:00;2.20;;;1.45;;
11596;SDS011;5854;48.072;16.286;2022-08-05T01:11:29;3.10;;;1.15;;
11596;SDS011;5854;48.072;16.286;2022-08-05T01:14:02;1.40;;;1.13;;
11596;SDS011;5854;48.072;16.286;2022-08-05T01:16:33;1.98;;;1.45;;
11596;SDS011;5854;48.072;16.286;2022-08-05T01:19:14;1.92;;;1.02;;
11596;SDS011;5854;48.072;16.286;2022-08-05T01:24:43;1.45;;;1.20;;
11596;SDS011;5854;48.072;16.286;2022-08-05T01:27:52;3.10;;;1.38;;
11596;SDS011;5854;48.072;16.286;2022-08-05T01:30:49;2.95;;;1.48;;
11596;SDS011;5854;48.072;16.286;2022-08-05T01:33:20;1.58;;;1.25;;
11596;SDS011;5854;48.072;16.286;2022-08-05T01:35:58;1.40;;;1.30;;
11596;SDS011;5854;48.072;16.286;2022-08-05T01:38:30;1.58;;;1.48;;
11596;SDS011;5854;48.072;16.286;2022-08-05T01:40:59;2.13;;;1.50;;
11596;SDS011;5854;48.072;16.286;2022-08-05T01:43:30;2.03;;;1.83;;
11596;SDS011;5854;48.072;16.286;2022-08-05T01:45:58;1.60;;;1.50;;
11596;SDS011;5854;48.072;16.286;2022-08-05T01:48:27;1.38;;;1.13;;
11596;SDS011;5854;48.072;16.286;2022-08-05T01:50:57;1.50;;;1.38;;
11596;SDS011;5854;48.072;16.286;2022-08-05T01:53:24;3.50;;;1.58;;
11596;SDS011;5854;48.072;16.286;2022-08-05T01:55:52;1.73;;;1.50;;
11596;SDS011;5854;48.072;16.286;2022-08-05T01:58:24;2.08;;;1.20;;
11596;SDS011;5854;48.072;16.286;2022-08-05T02:00:54;2.20;;;1.63;;
11596;SDS011;5854;48.072;16.286;2022-08-05T02:03:24;3.80;;;1.13;;
11596;SDS011;5854;48.072;16.286;2022-08-05T02:05:58;1.90;;;1.48;;
11596;SDS011;5854;48.072;16.286;2022-08-05T02:08:27;1.95;;;1.15;;
11596;SDS011;5854;48.072;16.286;2022-08-05T02:10:55;5.28;;;1.30;;
11596;SDS011;5854;48.072;16.286;2022-08-05T02:13:32;3.42;;;1.38;;
11596;SDS011;5854;48.072;16.286;2022-08-05T02:16:08;1.45;;;1.20;;
11596;SDS011;5854;48.072;16.286;2022-08-05T02:18:43;1.75;;;1.48;;
11596;SDS011;5854;48.072;16.286;2022-08-05T02:21:15;1.08;;;1.08;;
11596;SDS011;5854;48.072;16.286;2022-08-05T02:23:47;3.72;;;1.40;;
11596;SDS011;5854;48.072;16.286;2022-08-05T02:26:20;6.18;;;1.40;;
11596;SDS011;5854;48.072;16.286;2022-08-05T02:28:51;1.90;;;1.65;;
11596;SDS011;5854;48.072;16.286;2022-08-05T02:31:25;1.48;;;1.20;;
11596;SDS011;5854;48.072;16.286;2022-08-05T02:33:56;1.40;;;1.30;;
11596;SDS011;5854;48.072;16.286;2022-08-05T02:36:28;1.48;;;1.38;;
11596;SDS011;5854;48.072;16.286;2022-08-05T02:38:56;4.78;;;1.50;;
11596;SDS011;5854;48.072;16.286;2022-08-05T02:41:25;3.42;;;1.50;;
11596;SDS011;5854;48.072;16.286;2022-08-05T02:43:54;2.40;;;1.60;;
11596;SDS011;5854;48.072;16.286;2022-08-05T02:46:23;3.80;;;1.42;;
11596;SDS011;5854;48.072;16.286;2022-08-05T02:48:52;1.80;;;1.65;;
11596;SDS011;5854;48.072;16.286;2022-08-05T02:51:20;2.13;;;1.70;;
11596;SDS011;5854;48.072;16.286;2022-08-05T02:53:48;1.88;;;1.77;;
11596;SDS011;5854;48.072;16.286;2022-08-05T02:56:16;1.42;;;1.33;;
11596;SDS011;5854;48.072;16.286;2022-08-05T02:58:44;2.50;;;1.80;;
11596;SDS011;5854;48.072;16.286;2022-08-05T03:01:16;1.95;;;1.73;;
11596;SDS011;5854;48.072;16.286;2022-08-05T03:03:48;3.90;;;1.90;;
11596;SDS011;5854;48.072;16.286;2022-08-05T03:06:20;1.83;;;1.70;;
11596;SDS011;5854;48.072;16.286;2022-08-05T03:08:48;4.32;;;1.40;;
11596;SDS011;5854;48.072;16.286;2022-08-05T03:11:19;2.78;;;1.63;;
11596;SDS011;5854;48.072;16.286;2022-08-05T03:13:47;1.90;;;1.80;;
11596;SDS011;5854;48.072;16.286;2022-08-05T03:16:15;5.50;;;1.27;;
11596;SDS011;5854;48.072;16.286;2022-08-05T03:18:43;2.38;;;1.30;;
11596;SDS011;5854;48.072;16.286;2022-08-05T03:21:11;1.88;;;1.77;;
11596;SDS011;5854;48.072;16.286;2022-08-05T03:23:39;4.25;;;1.67;;
11596;SDS011;5854;48.072;16.286;2022-08-05T03:26:08;2.88;;;1.90;;
11596;SDS011;5854;48.072;16.286;2022-08-05T03:28:36;3.15;;;1.30;;
11596;SDS011;5854;48.072;16.286;2022-08-05T03:31:03;4.78;;;1.65;;
11596;SDS011;5854;48.072;16.286;2022-08-05T03:33:31;2.10;;;2.00;;
11596;SDS011;5854;48.072;16.286;2022-08-05T03:35:58;2.17;;;1.73;;
11596;SDS011;5854;48.072;16.286;2022-08-05T03:38:28;1.73;;;1.63;;
11596;SDS011;5854;48.072;16.286;2022-08-05T03:40:56;2.15;;;1.50;;
11596;SDS011;5854;48.072;16.286;2022-08-05T03:43:23;3.90;;;1.50;;
11596;SDS011;5854;48.072;16.286;2022-08-05T03:45:50;2.72;;;1.90;;
11596;SDS011;5854;48.072;16.286;2022-08-05T03:48:18;4.72;;;2.47;;
11596;SDS011;5854;48.072;16.286;2022-08-05T03:50:47;4.60;;;2.20;;
11596;SDS011;5854;48.072;16.286;2022-08-05T03:53:22;1.92;;;1.83;;
11596;SDS011;5854;48.072;16.286;2022-08-05T03:55:59;3.83;;;2.15;;
11596;SDS011;5854;48.072;16.286;2022-08-05T03:58:31;3.63;;;2.03;;
11596;SDS011;5854;48.072;16.286;2022-08-05T04:01:01;1.80;;;1.70;;
11596;SDS011;5854;48.072;16.286;2022-08-05T04:03:31;2.92;;;1.98;;
11596;SDS011;5854;48.072;16.286;2022-08-05T04:06:02;4.47;;;2.17;;
11596;SDS011;5854;48.072;16.286;2022-08-05T04:08:32;2.03;;;1.83;;
11596;SDS011;5854;48.072;16.286;2022-08-05T04:11:01;2.50;;;2.20;;
11596;SDS011;5854;48.072;16.286;2022-08-05T04:13:31;3.53;;;1.80;;
11596;SDS011;5854;48.072;16.286;2022-08-05T04:15:58;5.05;;;1.90;;
11596;SDS011;5854;48.072;16.286;2022-08-05T04:18:25;2.50;;;2.30;;
11596;SDS011;5854;48.072;16.286;2022-08-05T04:20:52;1.70;;;1.60;;
11596;SDS011;5854;48.072;16.286;2022-08-05T04:23:22;5.00;;;2.30;;
11596;SDS011;5854;48.072;16.286;2022-08-05T04:25:52;3.30;;;2.28;;
11596;SDS011;5854;48.072;16.286;2022-08-05T04:28:19;2.33;;;2.17;;
11596;SDS011;5854;48.072;16.286;2022-08-05T04:30:47;1.95;;;1.75;;
11596;SDS011;5854;48.072;16.286;2022-08-05T04:33:14;6.95;;;2.35;;
11596;SDS011;5854;48.072;16.286;2022-08-05T04:35:42;2.55;;;1.92;;
11596;SDS011;5854;48.072;16.286;2022-08-05T04:38:09;3.22;;;1.88;;
11596;SDS011;5854;48.072;16.286;2022-08-05T04:40:37;4.82;;;2.67;;
11596;SDS011;5854;48.072;16.286;2022-08-05T04:43:07;7.40;;;2.65;;
11596;SDS011;5854;48.072;16.286;2022-08-05T04:45:34;3.42;;;2.42;;
11596;SDS011;5854;48.072;16.286;2022-08-05T04:48:02;2.25;;;1.77;;
11596;SDS011;5854;48.072;16.286;2022-08-05T04:50:36;2.92;;;2.05;;
11596;SDS011;5854;48.072;16.286;2022-08-05T04:53:05;4.55;;;2.05;;
11596;SDS011;5854;48.072;16.286;2022-08-05T04:55:32;2.47;;;2.28;;
11596;SDS011;5854;48.072;16.286;2022-08-05T04:58:00;2.33;;;1.80;;
11596;SDS011;5854;48.072;16.286;2022-08-05T05:00:30;3.70;;;2.10;;
11596;SDS011;5854;48.072;16.286;2022-08-05T05:02:58;4.53;;;2.10;;
11596;SDS011;5854;48.072;16.286;2022-08-05T05:05:25;2.60;;;2.40;;
11596;SDS011;5854;48.072;16.286;2022-08-05T05:10:20;3.53;;;2.20;;
11596;SDS011;5854;48.072;16.286;2022-08-05T05:12:47;2.65;;;2.42;;
11596;SDS011;5854;48.072;16.286;2022-08-05T05:15:14;4.72;;;2.47;;
11596;SDS011;5854;48.072;16.286;2022-08-05T05:17:43;5.70;;;2.10;;
11596;SDS011;5854;48.072;16.286;2022-08-05T05:20:10;2.85;;;2.03;;
11596;SDS011;5854;48.072;16.286;2022-08-05T05:22:39;5.38;;;2.80;;
11596;SDS011;5854;48.072;16.286;2022-08-05T05:25:07;2.80;;;2.42;;
11596;SDS011;5854;48.072;16.286;2022-08-05T05:27:35;3.33;;;1.95;;
11596;SDS011;5854;48.072;16.286;2022-08-05T05:30:02;2.53;;;2.22;;
11596;SDS011;5854;48.072;16.286;2022-08-05T05:32:31;8.45;;;2.28;;
11596;SDS011;5854;48.072;16.286;2022-08-05T05:35:00;2.55;;;2.40;;
11596;SDS011;5854;48.072;16.286;2022-08-05T05:37:27;3.50;;;2.38;;
11596;SDS011;5854;48.072;16.286;2022-08-05T05:39:54;2.63;;;2.42;;
11596;SDS011;5854;48.072;16.286;2022-08-05T05:42:21;3.45;;;1.98;;
11596;SDS011;5854;48.072;16.286;2022-08-05T05:44:48;2.58;;;2.38;;
11596;SDS011;5854;48.072;16.286;2022-08-05T05:47:15;5.15;;;2.60;;
11596;SDS011;5854;48.072;16.286;2022-08-05T05:49:42;10.27;;;2.90;;
11596;SDS011;5854;48.072;16.286;2022-08-05T05:52:10;3.30;;;3.00;;
11596;SDS011;5854;48.072;16.286;2022-08-05T05:54:37;10.65;;;3.13;;
11596;SDS011;5854;48.072;16.286;2022-08-05T05:57:04;15.30;;;2.95;;
11596;SDS011;5854;48.072;16.286;2022-08-05T05:59:31;6.15;;;2.97;;
11596;SDS011;5854;48.072;16.286;2022-08-05T06:01:58;5.68;;;2.50;;
11596;SDS011;5854;48.072;16.286;2022-08-05T06:04:25;6.93;;;3.60;;
11596;SDS011;5854;48.072;16.286;2022-08-05T06:06:52;7.53;;;2.63;;
11596;SDS011;5854;48.072;16.286;2022-08-05T06:09:21;14.25;;;3.38;;
11596;SDS011;5854;48.072;16.286;2022-08-05T06:11:48;3.13;;;2.83;;
11596;SDS011;5854;48.072;16.286;2022-08-05T06:14:15;8.18;;;3.17;;
11596;SDS011;5854;48.072;16.286;2022-08-05T06:16:42;4.88;;;2.70;;
11596;SDS011;5854;48.072;16.286;2022-08-05T06:19:09;4.00;;;2.65;;
11596;SDS011;5854;48.072;16.286;2022-08-05T06:21:36;5.25;;;2.83;;
11596;SDS011;5854;48.072;16.286;2022-08-05T06:24:04;7.50;;;2.80;;
11596;SDS011;5854;48.072;16.286;2022-08-05T06:26:33;9.80;;;3.10;;
11596;SDS011;5854;48.072;16.286;2022-08-05T06:29:00;10.73;;;3.30;;
11596;SDS011;5854;48.072;16.286;2022-08-05T06:31:28;9.57;;;2.88;;
11596;SDS011;5854;48.072;16.286;2022-08-05T06:33:55;6.63;;;2.72;;
11596;SDS011;5854;48.072;16.286;2022-08-05T06:36:22;15.52;;;3.03;;
11596;SDS011;5854;48.072;16.286;2022-08-05T06:38:49;12.57;;;3.60;;
11596;SDS011;5854;48.072;16.286;2022-08-05T06:41:18;2.03;;;1.58;;
11596;SDS011;5854;48.072;16.286;2022-08-05T06:43:48;14.65;;;3.60;;
11596;SDS011;5854;48.072;16.286;2022-08-05T06:46:15;20.35;;;3.40;;
11596;SDS011;5854;48.072;16.286;2022-08-05T06:48:42;11.85;;;2.78;;
11596;SDS011;5854;48.072;16.286;2022-08-05T06:51:09;10.63;;;3.58;;
11596;SDS011;5854;48.072;16.286;2022-08-05T06:53:36;8.02;;;2.42;;
11596;SDS011;5854;48.072;16.286;2022-08-05T06:56:03;13.20;;;3.38;;
11596;SDS011;5854;48.072;16.286;2022-08-05T06:58:31;12.93;;;2.75;;
11596;SDS011;5854;48.072;16.286;2022-08-05T07:01:00;4.55;;;2.17;;
11596;SDS011;5854;48.072;16.286;2022-08-05T07:03:28;11.05;;;2.78;;
11596;SDS011;5854;48.072;16.286;2022-08-05T07:05:56;8.90;;;2.05;;
11596;SDS011;5854;48.072;16.286;2022-08-05T07:08:24;4.28;;;1.80;;
11596;SDS011;5854;48.072;16.286;2022-08-05T07:10:52;5.00;;;1.70;;
11596;SDS011;5854;48.072;16.286;2022-08-05T07:13:20;5.28;;;1.60;;
11596;SDS011;5854;48.072;16.286;2022-08-05T07:16:07;10.20;;;1.88;;
11596;SDS011;5854;48.072;16.286;2022-08-05T07:18:51;6.00;;;1.70;;
11596;SDS011;5854;48.072;16.286;2022-08-05T07:21:18;6.32;;;1.88;;
11596;SDS011;5854;48.072;16.286;2022-08-05T07:23:45;7.95;;;1.73;;
11596;SDS011;5854;48.072;16.286;2022-08-05T07:26:12;2.78;;;2.10;;
11596;SDS011;5854;48.072;16.286;2022-08-05T07:28:40;2.05;;;1.80;;
11596;SDS011;5854;48.072;16.286;2022-08-05T07:31:08;8.73;;;2.30;;
11596;SDS011;5854;48.072;16.286;2022-08-05T07:33:35;6.43;;;2.15;;
11596;SDS011;5854;48.072;16.286;2022-08-05T07:36:02;5.82;;;1.45;;
11596;SDS011;5854;48.072;16.286;2022-08-05T07:38:30;3.20;;;1.50;;
11596;SDS011;5854;48.072;16.286;2022-08-05T07:40:57;3.42;;;1.70;;
11596;SDS011;5854;48.072;16.286;2022-08-05T07:43:25;3.33;;;2.42;;
11596;SDS011;5854;48.072;16.286;2022-08-05T07:45:52;9.93;;;1.77;;
11596;SDS011;5854;48.072;16.286;2022-08-05T07:48:20;7.97;;;1.80;;
11596;SDS011;5854;48.072;16.286;2022-08-05T07:50:47;2.47;;;1.80;;
11596;SDS011;5854;48.072;16.286;2022-08-05T07:53:15;3.80;;;2.10;;
11596;SDS011;5854;48.072;16.286;2022-08-05T07:55:42;3.55;;;1.30;;
11596;SDS011;5854;48.072;16.286;2022-08-05T07:58:09;3.90;;;1.73;;
11596;SDS011;5854;48.072;16.286;2022-08-05T08:00:36;10.82;;;1.60;;
11596;SDS011;5854;48.072;16.286;2022-08-05T08:03:03;4.38;;;1.35;;
11596;SDS011;5854;48.072;16.286;2022-08-05T08:05:37;8.50;;;1.30;;
11596;SDS011;5854;48.072;16.286;2022-08-05T08:08:06;8.05;;;2.47;;
11596;SDS011;5854;48.072;16.286;2022-08-05T08:10:33;9.88;;;1.77;;
11596;SDS011;5854;48.072;16.286;2022-08-05T08:13:00;3.78;;;1.35;;
11596;SDS011;5854;48.072;16.286;2022-08-05T08:15:27;8.05;;;2.00;;
11596;SDS011;5854;48.072;16.286;2022-08-05T08:17:55;6.15;;;2.10;;
11596;SDS011;5854;48.072;16.286;2022-08-05T08:20:22;3.28;;;1.90;;
11596;SDS011;5854;48.072;16.286;2022-08-05T08:22:52;8.45;;;2.10;;
11596;SDS011;5854;48.072;16.286;2022-08-05T08:25:21;3.40;;;1.80;;
11596;SDS011;5854;48.072;16.286;2022-08-05T08:27:48;19.63;;;2.53;;
11596;SDS011;5854;48.072;16.286;2022-08-05T08:30:16;5.47;;;2.05;;
11596;SDS011;5854;48.072;16.286;2022-08-05T08:32:43;5.85;;;2.03;;
11596;SDS011;5854;48.072;16.286;2022-08-05T08:35:10;8.98;;;2.15;;
11596;SDS011;5854;48.072;16.286;2022-08-05T08:37:38;6.22;;;3.85;;
11596;SDS011;5854;48.072;16.286;2022-08-05T08:40:07;9.93;;;2.22;;
11596;SDS011;5854;48.072;16.286;2022-08-05T08:42:35;1.70;;;1.60;;
11596;SDS011;5854;48.072;16.286;2022-08-05T08:45:04;4.18;;;1.58;;
11596;SDS011;5854;48.072;16.286;2022-08-05T08:47:33;10.75;;;2.17;;
11596;SDS011;5854;48.072;16.286;2022-08-05T08:50:01;4.40;;;1.58;;
11596;SDS011;5854;48.072;16.286;2022-08-05T08:52:31;4.63;;;2.00;;
11596;SDS011;5854;48.072;16.286;2022-08-05T08:55:00;5.25;;;1.70;;
11596;SDS011;5854;48.072;16.286;2022-08-05T08:57:29;8.27;;;1.67;;
11596;SDS011;5854;48.072;16.286;2022-08-05T08:59:59;5.13;;;2.10;;
11596;SDS011;5854;48.072;16.286;2022-08-05T09:02:26;4.88;;;1.55;;
11596;SDS011;5854;48.072;16.286;2022-08-05T09:04:54;5.72;;;2.13;;
11596;SDS011;5854;48.072;16.286;2022-08-05T09:07:21;4.75;;;2.17;;
11596;SDS011;5854;48.072;16.286;2022-08-05T09:09:48;4.82;;;1.90;;
11596;SDS011;5854;48.072;16.286;2022-08-05T09:12:15;6.00;;;1.75;;
11596;SDS011;5854;48.072;16.286;2022-08-05T09:14:43;1.95;;;1.55;;
11596;SDS011;5854;48.072;16.286;2022-08-05T09:17:11;7.30;;;1.80;;
11596;SDS011;5854;48.072;16.286;2022-08-05T09:19:38;6.45;;;1.73;;
11596;SDS011;5854;48.072;16.286;2022-08-05T09:22:05;3.58;;;1.95;;
11596;SDS011;5854;48.072;16.286;2022-08-05T09:24:34;4.85;;;1.80;;
11596;SDS011;5854;48.072;16.286;2022-08-05T09:27:03;7.45;;;1.77;;
11596;SDS011;5854;48.072;16.286;2022-08-05T09:29:38;8.20;;;1.80;;
11596;SDS011;5854;48.072;16.286;2022-08-05T09:32:11;3.38;;;1.90;;
11596;SDS011;5854;48.072;16.286;2022-08-05T09:34:48;2.25;;;1.52;;
11596;SDS011;5854;48.072;16.286;2022-08-05T09:37:17;2.40;;;1.88;;
11596;SDS011;5854;48.072;16.286;2022-08-05T09:39:45;5.97;;;1.88;;
11596;SDS011;5854;48.072;16.286;2022-08-05T09:42:13;14.80;;;1.75;;
11596;SDS011;5854;48.072;16.286;2022-08-05T09:44:41;11.77;;;1.90;;
11596;SDS011;5854;48.072;16.286;2022-08-05T09:47:13;4.40;;;2.05;;
11596;SDS011;5854;48.072;16.286;2022-08-05T09:49:43;4.70;;;1.85;;
11596;SDS011;5854;48.072;16.286;2022-08-05T09:52:22;5.35;;;1.27;;
11596;SDS011;5854;48.072;16.286;2022-08-05T09:55:01;3.50;;;1.63;;
11596;SDS011;5854;48.072;16.286;2022-08-05T09:57:32;5.30;;;1.50;;
11596;SDS011;5854;48.072;16.286;2022-08-05T10:00:07;3.50;;;1.60;;
11596;SDS011;5854;48.072;16.286;2022-08-05T10:02:39;7.10;;;2.05;;
11596;SDS011;5854;48.072;16.286;2022-08-05T10:05:09;6.75;;;1.67;;
11596;SDS011;5854;48.072;16.286;2022-08-05T10:07:42;4.88;;;1.30;;
11596;SDS011;5854;48.072;16.286;2022-08-05T10:10:11;2.17;;;1.48;;
11596;SDS011;5854;48.072;16.286;2022-08-05T10:12:39;2.72;;;1.67;;
11596;SDS011;5854;48.072;16.286;2022-08-05T10:15:17;4.88;;;1.83;;
11596;SDS011;5854;48.072;16.286;2022-08-05T10:18:08;2.63;;;1.50;;
11596;SDS011;5854;48.072;16.286;2022-08-05T10:20:40;6.00;;;1.50;;
11596;SDS011;5854;48.072;16.286;2022-08-05T10:25:38;6.95;;;1.80;;
11596;SDS011;5854;48.072;16.286;2022-08-05T10:28:06;3.75;;;1.58;;
11596;SDS011;5854;48.072;16.286;2022-08-05T10:30:34;7.18;;;1.48;;
11596;SDS011;5854;48.072;16.286;2022-08-05T10:33:03;3.83;;;1.73;;
11596;SDS011;5854;48.072;16.286;2022-08-05T10:35:32;5.00;;;1.50;;
11596;SDS011;5854;48.072;16.286;2022-08-05T10:37:59;2.17;;;1.60;;
11596;SDS011;5854;48.072;16.286;2022-08-05T10:40:29;3.58;;;1.30;;
11596;SDS011;5854;48.072;16.286;2022-08-05T10:43:07;2.15;;;1.30;;
11596;SDS011;5854;48.072;16.286;2022-08-05T10:45:54;1.73;;;1.27;;
11596;SDS011;5854;48.072;16.286;2022-08-05T10:48:29;4.70;;;1.58;;
11596;SDS011;5854;48.072;16.286;2022-08-05T10:51:01;3.33;;;1.33;;
11596;SDS011;5854;48.072;16.286;2022-08-05T10:53:36;8.20;;;1.90;;
11596;SDS011;5854;48.072;16.286;2022-08-05T10:56:07;4.32;;;1.75;;
11596;SDS011;5854;48.072;16.286;2022-08-05T10:58:48;5.45;;;1.88;;
11596;SDS011;5854;48.072;16.286;2022-08-05T11:01:32;6.65;;;1.58;;
11596;SDS011;5854;48.072;16.286;2022-08-05T11:04:02;5.30;;;1.60;;
11596;SDS011;5854;48.072;16.286;2022-08-05T11:06:36;3.55;;;1.30;;
11596;SDS011;5854;48.072;16.286;2022-08-05T11:09:37;3.85;;;1.77;;
11596;SDS011;5854;48.072;16.286;2022-08-05T11:15:16;3.22;;;1.70;;
11596;SDS011;5854;48.072;16.286;2022-08-05T11:17:49;4.65;;;1.52;;
11596;SDS011;5854;48.072;16.286;2022-08-05T11:20:32;1.90;;;1.65;;
11596;SDS011;5854;48.072;16.286;2022-08-05T11:23:25;4.28;;;1.80;;
11596;SDS011;5854;48.072;16.286;2022-08-05T11:26:03;2.42;;;1.58;;
11596;SDS011;5854;48.072;16.286;2022-08-05T11:28:40;3.13;;;1.70;;
11596;SDS011;5854;48.072;16.286;2022-08-05T11:31:19;1.48;;;1.38;;
11596;SDS011;5854;48.072;16.286;2022-08-05T11:33:58;2.08;;;1.40;;
11596;SDS011;5854;48.072;16.286;2022-08-05T11:36:44;1.92;;;1.30;;
11596;SDS011;5854;48.072;16.286;2022-08-05T11:42:15;5.00;;;1.85;;
11596;SDS011;5854;48.072;16.286;2022-08-05T11:44:48;8.05;;;2.20;;
11596;SDS011;5854;48.072;16.286;2022-08-05T11:47:19;2.25;;;1.60;;
11596;SDS011;5854;48.072;16.286;2022-08-05T11:49:53;2.50;;;1.20;;
11596;SDS011;5854;48.072;16.286;2022-08-05T11:52:22;1.92;;;1.30;;
11596;SDS011;5854;48.072;16.286;2022-08-05T11:54:52;3.42;;;1.48;;
11596;SDS011;5854;48.072;16.286;2022-08-05T11:57:19;4.78;;;1.83;;
11596;SDS011;5854;48.072;16.286;2022-08-05T11:59:46;12.32;;;1.98;;
11596;SDS011;5854;48.072;16.286;2022-08-05T12:02:13;1.77;;;1.60;;
11596;SDS011;5854;48.072;16.286;2022-08-05T12:04:41;1.80;;;1.70;;
11596;SDS011;5854;48.072;16.286;2022-08-05T12:07:10;3.65;;;1.40;;
11596;SDS011;5854;48.072;16.286;2022-08-05T12:09:41;1.48;;;1.38;;
11596;SDS011;5854;48.072;16.286;2022-08-05T12:12:12;4.97;;;1.77;;
11596;SDS011;5854;48.072;16.286;2022-08-05T12:14:46;9.82;;;1.58;;
11596;SDS011;5854;48.072;16.286;2022-08-05T12:17:14;3.50;;;1.40;;
11596;SDS011;5854;48.072;16.286;2022-08-05T12:19:42;3.90;;;1.45;;
11596;SDS011;5854;48.072;16.286;2022-08-05T12:22:12;5.25;;;1.63;;
11596;SDS011;5854;48.072;16.286;2022-08-05T12:24:40;5.50;;;1.70;;
11596;SDS011;5854;48.072;16.286;2022-08-05T12:27:09;2.00;;;1.48;;
11596;SDS011;5854;48.072;16.286;2022-08-05T12:29:44;2.05;;;1.20;;
11596;SDS011;5854;48.072;16.286;2022-08-05T12:32:11;5.28;;;0.90;;
11596;SDS011;5854;48.072;16.286;2022-08-05T12:34:38;2.20;;;0.80;;
11596;SDS011;5854;48.072;16.286;2022-08-05T12:37:06;2.40;;;0.55;;
11596;SDS011;5854;48.072;16.286;2022-08-05T12:39:38;0.80;;;0.73;;
11596;SDS011;5854;48.072;16.286;2022-08-05T12:42:11;1.05;;;0.63;;
11596;SDS011;5854;48.072;16.286;2022-08-05T12:44:42;1.13;;;0.70;;
11596;SDS011;5854;48.072;16.286;2022-08-05T12:47:10;1.77;;;0.60;;
11596;SDS011;5854;48.072;16.286;2022-08-05T12:49:42;1.45;;;1.00;;
11596;SDS011;5854;48.072;16.286;2022-08-05T12:52:10;2.15;;;0.60;;
11596;SDS011;5854;48.072;16.286;2022-08-05T12:54:40;0.60;;;0.60;;
11596;SDS011;5854;48.072;16.286;2022-08-05T12:57:09;3.42;;;0.73;;
11596;SDS011;5854;48.072;16.286;2022-08-05T12:59:45;2.38;;;1.02;;
11596;SDS011;5854;48.072;16.286;2022-08-05T13:02:15;4.53;;;0.70;;
11596;SDS011;5854;48.072;16.286;2022-08-05T13:04:46;0.80;;;0.65;;
11596;SDS011;5854;48.072;16.286;2022-08-05T13:07:15;1.63;;;0.70;;
11596;SDS011;5854;48.072;16.286;2022-08-05T13:09:47;0.90;;;0.70;;
11596;SDS011;5854;48.072;16.286;2022-08-05T13:12:17;1.63;;;0.85;;
11596;SDS011;5854;48.072;16.286;2022-08-05T13:14:47;1.40;;;0.70;;
11596;SDS011;5854;48.072;16.286;2022-08-05T13:19:58;0.60;;;0.60;;
11596;SDS011;5854;48.072;16.286;2022-08-05T13:22:29;2.40;;;1.00;;
11596;SDS011;5854;48.072;16.286;2022-08-05T13:24:57;3.17;;;1.05;;
11596;SDS011;5854;48.072;16.286;2022-08-05T13:27:26;1.05;;;0.52;;
11596;SDS011;5854;48.072;16.286;2022-08-05T13:29:57;2.97;;;0.80;;
11596;SDS011;5854;48.072;16.286;2022-08-05T13:32:24;5.40;;;0.60;;
11596;SDS011;5854;48.072;16.286;2022-08-05T13:34:52;0.70;;;0.70;;
11596;SDS011;5854;48.072;16.286;2022-08-05T13:37:20;0.95;;;0.80;;
11596;SDS011;5854;48.072;16.286;2022-08-05T13:39:47;0.68;;;0.63;;
11596;SDS011;5854;48.072;16.286;2022-08-05T13:42:17;6.55;;;0.90;;
11596;SDS011;5854;48.072;16.286;2022-08-05T13:44:45;1.25;;;0.70;;
11596;SDS011;5854;48.072;16.286;2022-08-05T13:47:17;5.55;;;0.70;;
11596;SDS011;5854;48.072;16.286;2022-08-05T13:49:44;1.33;;;1.00;;
11596;SDS011;5854;48.072;16.286;2022-08-05T13:52:11;1.60;;;0.90;;
11596;SDS011;5854;48.072;16.286;2022-08-05T13:54:41;2.00;;;0.80;;
11596;SDS011;5854;48.072;16.286;2022-08-05T13:57:09;1.00;;;0.98;;
11596;SDS011;5854;48.072;16.286;2022-08-05T13:59:37;1.50;;;0.95;;
11596;SDS011;5854;48.072;16.286;2022-08-05T14:02:07;6.47;;;0.93;;
11596;SDS011;5854;48.072;16.286;2022-08-05T14:04:37;5.25;;;1.40;;
11596;SDS011;5854;48.072;16.286;2022-08-05T14:07:24;1.77;;;0.88;;
11596;SDS011;5854;48.072;16.286;2022-08-05T14:09:53;1.70;;;0.80;;
11596;SDS011;5854;48.072;16.286;2022-08-05T14:12:20;1.33;;;0.90;;
11596;SDS011;5854;48.072;16.286;2022-08-05T14:14:48;1.00;;;0.90;;
11596;SDS011;5854;48.072;16.286;2022-08-05T14:17:16;1.70;;;1.13;;
11596;SDS011;5854;48.072;16.286;2022-08-05T14:19:45;1.70;;;1.08;;
11596;SDS011;5854;48.072;16.286;2022-08-05T14:22:12;3.30;;;1.10;;
11596;SDS011;5854;48.072;16.286;2022-08-05T14:24:39;3.38;;;1.20;;
11596;SDS011;5854;48.072;16.286;2022-08-05T14:27:06;2.55;;;0.93;;
11596;SDS011;5854;48.072;16.286;2022-08-05T14:29:33;0.88;;;0.88;;
11596;SDS011;5854;48.072;16.286;2022-08-05T14:32:00;3.42;;;1.08;;
11596;SDS011;5854;48.072;16.286;2022-08-05T14:34:27;3.03;;;1.20;;
11596;SDS011;5854;48.072;16.286;2022-08-05T14:36:56;7.25;;;0.90;;
11596;SDS011;5854;48.072;16.286;2022-08-05T14:39:23;3.22;;;1.05;;
11596;SDS011;5854;48.072;16.286;2022-08-05T14:41:50;2.40;;;1.02;;
11596;SDS011;5854;48.072;16.286;2022-08-05T14:44:17;2.50;;;1.13;;
11596;SDS011;5854;48.072;16.286;2022-08-05T14:46:44;2.33;;;1.05;;
11596;SDS011;5854;48.072;16.286;2022-08-05T14:49:11;1.60;;;1.05;;
11596;SDS011;5854;48.072;16.286;2022-08-05T14:51:39;1.10;;;1.00;;
11596;SDS011;5854;48.072;16.286;2022-08-05T14:54:08;2.05;;;1.00;;
11596;SDS011;5854;48.072;16.286;2022-08-05T14:56:36;1.47;;;1.00;;
11596;SDS011;5854;48.072;16.286;2022-08-05T14:59:03;6.68;;;1.00;;
11596;SDS011;5854;48.072;16.286;2022-08-05T15:01:30;3.83;;;1.05;;
11596;SDS011;5854;48.072;16.286;2022-08-05T15:03:57;0.73;;;0.70;;
11596;SDS011;5854;48.072;16.286;2022-08-05T15:06:24;4.15;;;0.90;;
11596;SDS011;5854;48.072;16.286;2022-08-05T15:08:53;2.22;;;1.13;;
11596;SDS011;5854;48.072;16.286;2022-08-05T15:11:22;2.95;;;0.98;;
11596;SDS011;5854;48.072;16.286;2022-08-05T15:13:49;3.13;;;1.20;;
11596;SDS011;5854;48.072;16.286;2022-08-05T15:16:16;1.20;;;0.93;;
11596;SDS011;5854;48.072;16.286;2022-08-05T15:18:43;2.10;;;0.88;;